»·PEaware :: N66574 KLAX-KSNA

N66574 :: KLAX-KSNA

FLIGHT INFORMATION

Flight Status: Arrived
Operator: Privately registered:
United States
More flights under this callsign
Pilot: Ernie H. (21247)
Aircraft: CESSNA 172 SKYHAWK
(C172)
More flights by this aircraft type
Origin: KLAX Los Angeles Intl
United States
Destination: KSNA John Wayne-Orange Co
United States
More flights between these airports :: More routes between these airports
Route: +SLI8 SLI LAXP55
File this flight plan on PilotEdge
Remarks: Will req ILS 20R for CAT 6
Altitude:
(Current/Filed)
11,000ft
Speed:
(Current/Filed)
165kts
Departed: 29-Dec-19 01:50 PM
Arrived: 29-Dec-19 03:11 PM
Distance/Time
Traveled:
31nm/1:21
Distance/Time
To Go:
Arrived

Flight Plot

Page will automatically refresh every two minutes.

Flight plan parsing failed; only flown route is shown


Map Options




Map Legend


Flown Route
Filed Route
Departure Airport
Arrival Airport
Navaid (VOR, NDB)
Fix

Horizontal Profiles

Position Reports

Time Latitude Longitude Heading Altitude Ground
Speed
29-Dec-19 13:31 33.933883 -118.395129 92 106ft 0kts
29-Dec-19 13:32 33.933883 -118.395129 92 106ft 0kts
29-Dec-19 13:33 33.933883 -118.395129 92 106ft 0kts
29-Dec-19 13:34 33.933883 -118.395129 92 106ft 0kts
29-Dec-19 13:35 33.933883 -118.395129 92 106ft 0kts
29-Dec-19 13:36 33.935016 -118.393480 84 106ft 11kts
29-Dec-19 13:37 33.935532 -118.388472 82 106ft 36kts
29-Dec-19 13:38 33.936394 -118.382788 14 106ft 0kts
29-Dec-19 13:39 33.936394 -118.382787 14 106ft 0kts
29-Dec-19 13:40 33.936394 -118.382787 13 106ft 0kts
29-Dec-19 13:41 33.936394 -118.382787 13 106ft 0kts
29-Dec-19 13:42 33.936394 -118.382787 13 106ft 0kts
29-Dec-19 13:43 33.936394 -118.382787 13 106ft 0kts
29-Dec-19 13:44 33.936394 -118.382787 13 106ft 0kts
29-Dec-19 13:45 33.936394 -118.382787 13 106ft 0kts
29-Dec-19 13:47 33.936394 -118.382787 13 106ft 0kts
29-Dec-19 13:48 33.936394 -118.382787 13 106ft 0kts
29-Dec-19 13:49 33.937089 -118.382911 323 106ft 21kts
29-Dec-19 13:50 33.936318 -118.399827 266 603ft 78kts
29-Dec-19 13:51 33.934930 -118.428365 266 1393ft 97kts
29-Dec-19 13:52 33.933445 -118.461571 267 2193ft 101kts
29-Dec-19 13:53 33.931717 -118.494764 267 2984ft 100kts
29-Dec-19 13:54 33.929384 -118.528548 267 3810ft 96kts
29-Dec-19 13:55 33.926824 -118.557997 267 4563ft 92kts
29-Dec-19 13:56 33.940969 -118.571326 32 4745ft 118kts
29-Dec-19 13:57 33.943712 -118.539294 95 4746ft 133kts
29-Dec-19 13:58 33.934441 -118.463637 95 4751ft 133kts
29-Dec-19 14:10 33.933883 -118.395129 92 106ft 0kts
29-Dec-19 14:12 33.933883 -118.395129 92 106ft 0kts
29-Dec-19 14:12 33.933883 -118.395129 92 106ft 0kts
29-Dec-19 14:13 33.933883 -118.395129 92 106ft 0kts
29-Dec-19 14:14 33.933883 -118.395129 92 106ft 0kts
29-Dec-19 14:15 33.933883 -118.395129 92 106ft 0kts
29-Dec-19 14:16 33.933883 -118.395129 92 106ft 0kts
29-Dec-19 14:17 33.933883 -118.395129 92 106ft 0kts
29-Dec-19 14:18 33.935358 -118.390160 82 106ft 43kts
29-Dec-19 14:19 33.936342 -118.382810 32 106ft 0kts
29-Dec-19 14:20 33.936353 -118.382803 27 106ft 0kts
29-Dec-19 14:21 33.936685 -118.391787 266 304ft 75kts
29-Dec-19 14:22 33.935525 -118.417169 267 1031ft 96kts
29-Dec-19 14:23 33.929019 -118.446215 217 1789ft 102kts
29-Dec-19 14:24 33.906961 -118.464525 214 2544ft 102kts
29-Dec-19 14:25 33.883403 -118.464013 146 3235ft 100kts
29-Dec-19 14:26 33.863770 -118.446909 143 3933ft 98kts
29-Dec-19 14:27 33.841570 -118.427442 143 4023ft 124kts
29-Dec-19 14:28 33.810199 -118.399990 143 4022ft 123kts
29-Dec-19 14:29 33.784860 -118.377899 144 4022ft 123kts
29-Dec-19 14:30 33.758363 -118.354909 144 4024ft 122kts
29-Dec-19 14:31 33.736517 -118.336026 144 4024ft 123kts
29-Dec-19 14:32 33.720845 -118.316299 106 4022ft 121kts
29-Dec-19 14:33 33.720429 -118.293175 65 4022ft 118kts
29-Dec-19 14:34 33.726915 -118.272979 69 4022ft 119kts
29-Dec-19 14:35 33.732952 -118.250594 70 4021ft 120kts
29-Dec-19 14:36 33.738866 -118.227659 71 4021ft 121kts
29-Dec-19 14:37 33.745265 -118.202662 71 4020ft 123kts
29-Dec-19 14:38 33.751665 -118.177527 71 4019ft 124kts
29-Dec-19 14:39 33.759845 -118.145446 72 4017ft 126kts
29-Dec-19 14:40 33.769102 -118.109207 72 4016ft 127kts
29-Dec-19 14:43 33.769584 -118.107334 0 4016ft 0kts
29-Dec-19 14:44 33.775807 -118.082928 73 4015ft 127kts
29-Dec-19 14:45 33.787425 -118.044189 65 4013ft 127kts
29-Dec-19 14:46 33.801289 -118.009197 63 4013ft 126kts
29-Dec-19 14:47 33.816285 -117.971786 63 4012ft 125kts
29-Dec-19 14:48 33.830871 -117.935448 63 4011ft 124kts
29-Dec-19 14:49 33.845354 -117.899326 63 4010ft 123kts
29-Dec-19 14:50 33.859827 -117.863189 63 4009ft 122kts
29-Dec-19 14:51 33.873556 -117.828872 63 4009ft 121kts
29-Dec-19 14:52 33.885540 -117.798888 62 4009ft 121kts
29-Dec-19 14:53 33.896890 -117.770468 62 4009ft 120kts
29-Dec-19 14:54 33.910944 -117.735508 61 4010ft 120kts
29-Dec-19 14:55 33.931489 -117.706011 27 4011ft 117kts
29-Dec-19 14:56 33.961047 -117.686155 27 4011ft 118kts
29-Dec-19 14:57 33.976245 -117.703937 221 4007ft 116kts
29-Dec-19 14:58 33.943413 -117.706860 166 3978ft 118kts
29-Dec-19 14:59 33.911652 -117.716600 210 3684ft 122kts
29-Dec-19 15:00 33.885755 -117.734390 210 3409ft 112kts
29-Dec-19 15:01 33.862421 -117.750084 211 3417ft 91kts
29-Dec-19 15:02 33.839705 -117.765135 208 3299ft 97kts
29-Dec-19 15:03 33.815062 -117.780789 209 2813ft 96kts
29-Dec-19 15:04 33.793972 -117.794310 209 2525ft 91kts
29-Dec-19 15:05 33.771470 -117.808649 208 2084ft 92kts
29-Dec-19 15:06 33.749054 -117.822703 207 1587ft 90kts
29-Dec-19 15:07 33.727097 -117.836516 207 1089ft 88kts
29-Dec-19 15:08 33.707095 -117.849056 213 665ft 72kts
29-Dec-19 15:09 33.690043 -117.859641 212 268ft 62kts
29-Dec-19 15:10 33.675743 -117.868944 231 60ft 26kts
29-Dec-19 15:11 33.675805 -117.869408 302 60ft 0kts
29-Dec-19 15:12 33.675805 -117.869408 302 60ft 0kts
29-Dec-19 15:13 33.675805 -117.869408 302 60ft 0kts
29-Dec-19 15:14 33.676803 -117.870289 292 60ft 0kts

Navigation Log

Ident Type
Flight plan parsing failed, navigation log unavailable